CFG4HA EDLW-LEPA
Flight info
| Callsign | CFG4HA |
|---|---|
| Flight time | N/A |
| Altitude | 35000 |
| Route | BAMSU2Q/06 BAMSU M170 NVO Y841 KENUM DCT GESLO DCT LIMGO/N0451F330 DCT SUTAL DCT GTQ DCT POGOL DCT LASAT DCT MOROK DCT GILIR DCT GEVEA DCT INCUS DCT BALSI DCT RETNO/N0459F350 DCT TUPOX DCT MTG DCT DIVKO DCT VATIR N852 VERSO DCT LUNIK |
| Aircraft | A321/M-SDE3FGHIRWY/LB1 |
Departure
| Time | 2026-05-05 15:58 |
|---|---|
| Airport | Dortmund Airport (EDLW) |
Arrival
| Time | N/A |
|---|---|
| Airport | Palma de Mallorca Airport (LEPA) |
| Time | Latitude | Longitude | Altitude | Speed | Heading |
|---|---|---|---|---|---|
| 2026-05-05 15:28 | 51.51416 | 7.60998 | 432 ft | 0 kts | 143° |
| 2026-05-05 15:49 | 51.51423 | 7.60989 | 433 ft | 4 kts | 140° |
| 2026-05-05 15:50 | 51.51441 | 7.60958 | 434 ft | 4 kts | 122° |
| 2026-05-05 15:50 | 51.51452 | 7.60920 | 447 ft | 4 kts | 95° |
| 2026-05-05 15:50 | 51.51450 | 7.60886 | 448 ft | 1 kts | 61° |
| 2026-05-05 15:53 | 51.51457 | 7.60907 | 448 ft | 6 kts | 60° |
| 2026-05-05 15:53 | 51.51481 | 7.60972 | 446 ft | 9 kts | 60° |
| 2026-05-05 15:53 | 51.51510 | 7.61047 | 434 ft | 7 kts | 44° |
| 2026-05-05 15:53 | 51.51568 | 7.61018 | 439 ft | 10 kts | 287° |
| 2026-05-05 15:54 | 51.51544 | 7.60915 | 433 ft | 7 kts | 239° |
| 2026-05-05 15:54 | 51.51518 | 7.60846 | 424 ft | 7 kts | 240° |
| 2026-05-05 15:54 | 51.51498 | 7.60787 | 428 ft | 6 kts | 240° |
| 2026-05-05 15:54 | 51.51478 | 7.60730 | 426 ft | 5 kts | 240° |
| 2026-05-05 15:55 | 51.51461 | 7.60683 | 439 ft | 4 kts | 240° |
| 2026-05-05 15:55 | 51.51447 | 7.60645 | 431 ft | 4 kts | 240° |
| 2026-05-05 15:55 | 51.51437 | 7.60615 | 430 ft | 3 kts | 240° |
| 2026-05-05 15:55 | 51.51425 | 7.60582 | 435 ft | 6 kts | 240° |
| 2026-05-05 15:56 | 51.51396 | 7.60498 | 432 ft | 8 kts | 241° |
| 2026-05-05 15:56 | 51.51366 | 7.60414 | 429 ft | 9 kts | 242° |
| 2026-05-05 15:56 | 51.51367 | 7.60317 | 433 ft | 10 kts | 303° |
| 2026-05-05 15:56 | 51.51426 | 7.60249 | 426 ft | 9 kts | 329° |
| 2026-05-05 15:57 | 51.51467 | 7.60214 | 423 ft | 7 kts | 341° |
| 2026-05-05 15:57 | 51.51490 | 7.60247 | 423 ft | 0 kts | 58° |
| 2026-05-05 15:57 | 51.51502 | 7.60281 | 419 ft | 24 kts | 60° |
| 2026-05-05 15:57 | 51.51723 | 7.60907 | 415 ft | 100 kts | 61° |
| 2026-05-05 15:58 | 51.52168 | 7.62165 | 434 ft | 152 kts | 56° |
| 2026-05-05 15:58 | 51.52666 | 7.63624 | 1159 ft | 147 kts | 58° |
| 2026-05-05 15:58 | 51.53159 | 7.65045 | 1789 ft | 146 kts | 59° |
| 2026-05-05 15:58 | 51.53700 | 7.66567 | 1911 ft | 168 kts | 59° |
| 2026-05-05 15:59 | 51.54312 | 7.68280 | 2048 ft | 188 kts | 59° |
| 2026-05-05 15:59 | 51.55001 | 7.70203 | 2201 ft | 209 kts | 60° |
| 2026-05-05 15:59 | 51.55762 | 7.72360 | 2379 ft | 234 kts | 63° |
| 2026-05-05 15:59 | 51.56088 | 7.74985 | 2890 ft | 249 kts | 98° |
| 2026-05-05 16:00 | 51.55685 | 7.76727 | 3327 ft | 257 kts | 122° |
| 2026-05-05 16:00 | 51.54305 | 7.78560 | 4007 ft | 264 kts | 159° |
| 2026-05-05 16:00 | 51.52492 | 7.78982 | 4701 ft | 268 kts | 190° |
| 2026-05-05 16:00 | 51.50824 | 7.77723 | 5461 ft | 267 kts | 220° |
| 2026-05-05 16:01 | 51.49597 | 7.75543 | 6287 ft | 267 kts | 236° |
| 2026-05-05 16:01 | 51.48752 | 7.72877 | 6993 ft | 269 kts | 245° |
| 2026-05-05 16:01 | 51.47996 | 7.70115 | 7680 ft | 271 kts | 244° |
| 2026-05-05 16:01 | 51.47191 | 7.67320 | 8300 ft | 276 kts | 242° |
| 2026-05-05 16:02 | 51.46368 | 7.64511 | 8985 ft | 280 kts | 244° |
| 2026-05-05 16:02 | 51.45547 | 7.61710 | 9639 ft | 282 kts | 243° |
| 2026-05-05 16:02 | 51.44706 | 7.58837 | 10229 ft | 287 kts | 243° |
| 2026-05-05 16:02 | 51.43861 | 7.55934 | 10891 ft | 287 kts | 243° |
| 2026-05-05 16:03 | 51.43027 | 7.53058 | 11691 ft | 281 kts | 244° |
| 2026-05-05 16:03 | 51.42157 | 7.50237 | 12370 ft | 281 kts | 237° |
| 2026-05-05 16:03 | 51.41036 | 7.47665 | 12958 ft | 283 kts | 228° |
| 2026-05-05 16:03 | 51.39665 | 7.45435 | 13556 ft | 284 kts | 219° |
| 2026-05-05 16:04 | 51.38059 | 7.43563 | 14102 ft | 286 kts | 210° |
| 2026-05-05 16:04 | 51.36272 | 7.42118 | 14673 ft | 287 kts | 201° |
| 2026-05-05 16:04 | 51.34398 | 7.40906 | 15228 ft | 291 kts | 201° |
| 2026-05-05 16:04 | 51.32535 | 7.39705 | 15765 ft | 294 kts | 201° |
| 2026-05-05 16:05 | 51.30627 | 7.38478 | 16321 ft | 297 kts | 201° |
| 2026-05-05 16:05 | 51.28705 | 7.37243 | 16883 ft | 299 kts | 201° |
| 2026-05-05 16:05 | 51.26757 | 7.35991 | 17455 ft | 302 kts | 201° |
| 2026-05-05 16:05 | 51.24801 | 7.34731 | 18025 ft | 304 kts | 201° |
| 2026-05-05 16:06 | 51.22831 | 7.33460 | 18526 ft | 306 kts | 201° |
| 2026-05-05 16:06 | 51.20874 | 7.32191 | 19013 ft | 308 kts | 203° |
| 2026-05-05 16:06 | 51.19019 | 7.30445 | 19488 ft | 312 kts | 217° |
| 2026-05-05 16:06 | 51.17487 | 7.27980 | 19970 ft | 316 kts | 231° |
| 2026-05-05 16:07 | 51.16181 | 7.25135 | 20460 ft | 317 kts | 232° |
| 2026-05-05 16:07 | 51.14888 | 7.22335 | 21160 ft | 312 kts | 231° |
| 2026-05-05 16:07 | 51.13596 | 7.19560 | 21689 ft | 312 kts | 231° |
| 2026-05-05 16:07 | 51.12289 | 7.16776 | 22183 ft | 314 kts | 231° |
| 2026-05-05 16:08 | 51.10972 | 7.13977 | 22626 ft | 317 kts | 231° |
| 2026-05-05 16:08 | 51.09645 | 7.11154 | 23065 ft | 319 kts | 231° |
| 2026-05-05 16:08 | 51.08322 | 7.08342 | 23428 ft | 324 kts | 230° |
| 2026-05-05 16:08 | 51.06964 | 7.05457 | 23782 ft | 327 kts | 230° |
| 2026-05-05 16:09 | 51.05595 | 7.02551 | 24146 ft | 329 kts | 230° |
| 2026-05-05 16:09 | 51.04222 | 6.99632 | 24531 ft | 330 kts | 230° |
| 2026-05-05 16:09 | 51.02838 | 6.96685 | 24902 ft | 332 kts | 230° |
| 2026-05-05 16:09 | 51.01463 | 6.93763 | 25254 ft | 334 kts | 230° |
| 2026-05-05 16:10 | 51.00061 | 6.90792 | 25622 ft | 336 kts | 230° |
| 2026-05-05 16:10 | 50.98652 | 6.87813 | 25996 ft | 337 kts | 230° |
| 2026-05-05 16:10 | 50.97235 | 6.84826 | 26359 ft | 340 kts | 229° |
| 2026-05-05 16:10 | 50.95627 | 6.82160 | 26697 ft | 338 kts | 218° |
| 2026-05-05 16:11 | 50.93846 | 6.79709 | 27073 ft | 340 kts | 218° |
| 2026-05-05 16:11 | 50.88465 | 6.72255 | 28217 ft | 345 kts | 219° |
| 2026-05-05 16:12 | 50.86645 | 6.69732 | 28411 ft | 350 kts | 219° |
| 2026-05-05 16:12 | 50.83068 | 6.64471 | 29067 ft | 356 kts | 229° |
| 2026-05-05 16:13 | 50.79810 | 6.53783 | 30047 ft | 365 kts | 245° |
| 2026-05-05 16:13 | 50.78872 | 6.50047 | 30319 ft | 364 kts | 245° |
| 2026-05-05 16:13 | 50.77933 | 6.46335 | 30575 ft | 365 kts | 245° |
| 2026-05-05 16:14 | 50.76015 | 6.38800 | 30828 ft | 373 kts | 244° |
| 2026-05-05 16:14 | 50.74042 | 6.31191 | 31067 ft | 378 kts | 239° |
| 2026-05-05 16:15 | 50.70718 | 6.24873 | 31338 ft | 376 kts | 212° |
| 2026-05-05 16:15 | 50.65982 | 6.21628 | 31600 ft | 377 kts | 192° |
| 2026-05-05 16:16 | 50.60806 | 6.19737 | 31853 ft | 386 kts | 192° |
| 2026-05-05 16:16 | 50.55528 | 6.17795 | 32115 ft | 393 kts | 192° |
| 2026-05-05 16:17 | 50.50139 | 6.15825 | 32382 ft | 400 kts | 192° |
| 2026-05-05 16:17 | 50.47443 | 6.14836 | 32516 ft | 404 kts | 191° |
| 2026-05-05 16:18 | 50.41928 | 6.12815 | 32788 ft | 410 kts | 191° |
| 2026-05-05 16:18 | 50.39141 | 6.11804 | 32924 ft | 413 kts | 191° |
| 2026-05-05 16:18 | 50.33498 | 6.09756 | 33361 ft | 416 kts | 191° |
| 2026-05-05 16:19 | 50.30664 | 6.08722 | 33720 ft | 415 kts | 191° |
| 2026-05-05 16:19 | 50.27859 | 6.07700 | 34054 ft | 413 kts | 191° |
| 2026-05-05 16:19 | 50.22275 | 6.05681 | 34443 ft | 416 kts | 191° |
| 2026-05-05 16:20 | 50.16604 | 6.03636 | 34782 ft | 418 kts | 191° |
| 2026-05-05 16:20 | 50.10959 | 6.01808 | 34823 ft | 415 kts | 184° |
| 2026-05-05 16:21 | 50.05229 | 6.02441 | 34825 ft | 413 kts | 165° |
| 2026-05-05 16:22 | 49.97137 | 6.07318 | 34821 ft | 417 kts | 158° |
| 2026-05-05 16:23 | 49.86378 | 6.14051 | 34838 ft | 418 kts | 158° |
| 2026-05-05 16:23 | 49.78317 | 6.19089 | 34831 ft | 418 kts | 158° |
| 2026-05-05 16:24 | 49.72917 | 6.22455 | 34830 ft | 418 kts | 158° |
| 2026-05-05 16:25 | 49.64813 | 6.27480 | 34833 ft | 419 kts | 158° |
| 2026-05-05 16:25 | 49.56738 | 6.32621 | 34838 ft | 419 kts | 157° |
| 2026-05-05 16:26 | 49.45970 | 6.39616 | 34822 ft | 420 kts | 157° |
| 2026-05-05 16:27 | 49.40612 | 6.43217 | 34816 ft | 420 kts | 156° |
| 2026-05-05 16:27 | 49.35302 | 6.46880 | 34822 ft | 420 kts | 156° |
| 2026-05-05 16:28 | 49.29954 | 6.50544 | 34822 ft | 421 kts | 156° |
| 2026-05-05 16:28 | 49.24609 | 6.54157 | 34821 ft | 422 kts | 156° |
| 2026-05-05 16:29 | 49.19220 | 6.57796 | 34825 ft | 422 kts | 156° |
| 2026-05-05 16:29 | 49.13836 | 6.61432 | 34820 ft | 422 kts | 156° |
| 2026-05-05 16:30 | 49.08488 | 6.65026 | 34813 ft | 422 kts | 156° |
| 2026-05-05 16:30 | 49.03081 | 6.68648 | 34811 ft | 423 kts | 156° |
| 2026-05-05 16:31 | 48.97502 | 6.71233 | 34812 ft | 423 kts | 173° |
| 2026-05-05 16:31 | 48.91596 | 6.71342 | 34816 ft | 425 kts | 181° |
| 2026-05-05 16:32 | 48.85682 | 6.71085 | 34825 ft | 425 kts | 181° |
| 2026-05-05 16:32 | 48.79794 | 6.70867 | 34827 ft | 426 kts | 181° |
| 2026-05-05 16:33 | 48.73866 | 6.70653 | 34823 ft | 425 kts | 181° |
| 2026-05-05 16:33 | 48.67945 | 6.70419 | 34818 ft | 425 kts | 181° |
| 2026-05-05 16:34 | 48.62017 | 6.70188 | 34820 ft | 425 kts | 181° |
| 2026-05-05 16:34 | 48.56129 | 6.69962 | 34820 ft | 425 kts | 181° |
| 2026-05-05 16:35 | 48.50201 | 6.69737 | 34824 ft | 425 kts | 181° |
| 2026-05-05 16:35 | 48.44266 | 6.69504 | 34829 ft | 425 kts | 181° |
| 2026-05-05 16:36 | 48.38380 | 6.69275 | 34831 ft | 426 kts | 181° |
| 2026-05-05 16:36 | 48.32448 | 6.69050 | 34835 ft | 426 kts | 181° |
| 2026-05-05 16:37 | 48.26547 | 6.68820 | 34841 ft | 426 kts | 181° |
| 2026-05-05 16:37 | 48.20613 | 6.68595 | 34850 ft | 426 kts | 181° |
| 2026-05-05 16:38 | 48.14683 | 6.68377 | 34853 ft | 426 kts | 181° |
| 2026-05-05 16:38 | 48.08744 | 6.68147 | 34862 ft | 426 kts | 181° |
| 2026-05-05 16:39 | 48.02854 | 6.67915 | 34867 ft | 426 kts | 182° |
| 2026-05-05 16:39 | 47.96908 | 6.67690 | 34868 ft | 426 kts | 182° |
| 2026-05-05 16:40 | 47.90977 | 6.67469 | 34870 ft | 426 kts | 182° |
| 2026-05-05 16:40 | 47.85080 | 6.67249 | 34875 ft | 426 kts | 182° |
| 2026-05-05 16:41 | 47.79127 | 6.67036 | 34866 ft | 426 kts | 182° |
| 2026-05-05 16:41 | 47.73187 | 6.66808 | 34856 ft | 427 kts | 182° |
| 2026-05-05 16:42 | 47.67272 | 6.66577 | 34863 ft | 427 kts | 182° |
| 2026-05-05 16:42 | 47.61309 | 6.66345 | 34857 ft | 428 kts | 182° |
| 2026-05-05 16:43 | 47.55346 | 6.66122 | 34874 ft | 428 kts | 183° |
| 2026-05-05 16:43 | 47.49393 | 6.65910 | 34874 ft | 427 kts | 183° |
| 2026-05-05 16:44 | 47.43505 | 6.65513 | 34874 ft | 425 kts | 191° |
| 2026-05-05 16:44 | 47.37937 | 6.62747 | 34879 ft | 421 kts | 210° |
| 2026-05-05 16:45 | 47.33316 | 6.57568 | 34893 ft | 419 kts | 220° |
| 2026-05-05 16:45 | 47.28875 | 6.51979 | 34905 ft | 419 kts | 220° |
| 2026-05-05 16:46 | 47.24455 | 6.46459 | 34906 ft | 418 kts | 220° |
| 2026-05-05 16:46 | 47.20005 | 6.40912 | 34909 ft | 418 kts | 220° |
| 2026-05-05 16:47 | 47.16313 | 6.36319 | 34912 ft | 417 kts | 220° |
| 2026-05-05 16:47 | 47.11161 | 6.29921 | 34915 ft | 416 kts | 220° |
| 2026-05-05 16:48 | 47.06385 | 6.25191 | 34910 ft | 416 kts | 205° |
| 2026-05-05 16:48 | 47.01743 | 6.23299 | 34913 ft | 420 kts | 188° |
| 2026-05-05 16:49 | 46.95904 | 6.22550 | 34909 ft | 420 kts | 188° |
| 2026-05-05 16:49 | 46.90084 | 6.21753 | 34909 ft | 420 kts | 188° |
| 2026-05-05 16:50 | 46.84291 | 6.20962 | 34909 ft | 419 kts | 188° |
| 2026-05-05 16:50 | 46.78463 | 6.20254 | 34890 ft | 419 kts | 188° |
| 2026-05-05 16:51 | 46.72668 | 6.19482 | 34893 ft | 418 kts | 189° |
| 2026-05-05 16:51 | 46.66865 | 6.18666 | 34897 ft | 418 kts | 188° |
| 2026-05-05 16:52 | 46.61097 | 6.17892 | 34905 ft | 418 kts | 188° |
| 2026-05-05 16:52 | 46.55295 | 6.17140 | 34902 ft | 419 kts | 188° |
| 2026-05-05 16:53 | 46.49476 | 6.16386 | 34905 ft | 419 kts | 188° |
| 2026-05-05 16:53 | 46.43706 | 6.15620 | 34906 ft | 418 kts | 188° |
| 2026-05-05 16:54 | 46.37890 | 6.14856 | 34927 ft | 418 kts | 189° |
| 2026-05-05 16:54 | 46.32117 | 6.14100 | 34937 ft | 417 kts | 189° |
| 2026-05-05 16:55 | 46.26335 | 6.13352 | 34936 ft | 417 kts | 189° |
| 2026-05-05 16:55 | 46.20585 | 6.12356 | 34934 ft | 415 kts | 192° |
| 2026-05-05 16:56 | 46.14887 | 6.10995 | 34932 ft | 414 kts | 193° |
| 2026-05-05 16:56 | 46.09242 | 6.09630 | 34905 ft | 413 kts | 193° |
| 2026-05-05 16:57 | 46.03548 | 6.08339 | 34905 ft | 413 kts | 192° |
| 2026-05-05 16:57 | 45.97886 | 6.07101 | 34887 ft | 413 kts | 193° |
| 2026-05-05 16:58 | 45.92206 | 6.05861 | 34894 ft | 412 kts | 193° |
| 2026-05-05 16:58 | 45.86542 | 6.04617 | 34894 ft | 411 kts | 193° |
| 2026-05-05 16:59 | 45.80918 | 6.03378 | 34881 ft | 411 kts | 193° |
| 2026-05-05 16:59 | 45.75268 | 6.02124 | 34888 ft | 410 kts | 193° |
| 2026-05-05 17:00 | 45.69624 | 6.00885 | 34882 ft | 409 kts | 193° |
| 2026-05-05 17:00 | 45.63983 | 5.99647 | 34884 ft | 409 kts | 193° |
| 2026-05-05 17:01 | 45.58376 | 5.98409 | 34893 ft | 409 kts | 193° |
| 2026-05-05 17:01 | 45.52780 | 5.97176 | 34904 ft | 408 kts | 193° |
| 2026-05-05 17:02 | 45.47175 | 5.95940 | 34901 ft | 406 kts | 194° |
| 2026-05-05 17:02 | 45.41638 | 5.94352 | 34890 ft | 404 kts | 197° |
| 2026-05-05 17:03 | 45.36198 | 5.92545 | 34904 ft | 403 kts | 198° |
| 2026-05-05 17:03 | 45.30734 | 5.90754 | 34903 ft | 402 kts | 197° |
| 2026-05-05 17:04 | 45.25283 | 5.89052 | 34910 ft | 402 kts | 197° |
| 2026-05-05 17:04 | 45.19799 | 5.87368 | 34912 ft | 403 kts | 197° |
| 2026-05-05 17:05 | 45.14315 | 5.85683 | 34907 ft | 401 kts | 197° |
| 2026-05-05 17:05 | 45.08895 | 5.84003 | 34908 ft | 401 kts | 197° |
| 2026-05-05 17:06 | 45.03450 | 5.82302 | 34889 ft | 400 kts | 198° |
| 2026-05-05 17:06 | 44.98016 | 5.80629 | 34913 ft | 398 kts | 197° |
| 2026-05-05 17:07 | 44.92634 | 5.78982 | 34922 ft | 396 kts | 198° |
| 2026-05-05 17:07 | 44.87237 | 5.77326 | 34922 ft | 396 kts | 198° |
| 2026-05-05 17:08 | 44.81863 | 5.75679 | 34911 ft | 394 kts | 198° |
| 2026-05-05 17:08 | 44.76501 | 5.74044 | 34920 ft | 393 kts | 198° |
| 2026-05-05 17:09 | 44.71176 | 5.72418 | 34921 ft | 393 kts | 198° |
| 2026-05-05 17:09 | 44.65840 | 5.70790 | 34936 ft | 392 kts | 197° |
| 2026-05-05 17:10 | 44.60516 | 5.69172 | 34915 ft | 393 kts | 197° |
| 2026-05-05 17:10 | 44.55149 | 5.67541 | 34907 ft | 394 kts | 197° |
| 2026-05-05 17:11 | 44.49780 | 5.65904 | 34908 ft | 395 kts | 197° |
| 2026-05-05 17:11 | 44.44440 | 5.64291 | 34904 ft | 394 kts | 197° |
| 2026-05-05 17:12 | 44.39063 | 5.62667 | 34912 ft | 394 kts | 198° |
| 2026-05-05 17:12 | 44.33957 | 5.60142 | 34915 ft | 388 kts | 205° |
| 2026-05-05 17:13 | 44.28954 | 5.57386 | 34912 ft | 388 kts | 205° |
| 2026-05-05 17:13 | 44.23925 | 5.54631 | 34908 ft | 388 kts | 205° |
| 2026-05-05 17:14 | 44.18900 | 5.51897 | 34920 ft | 387 kts | 205° |
| 2026-05-05 17:14 | 44.13915 | 5.49184 | 34921 ft | 387 kts | 205° |
| 2026-05-05 17:15 | 44.08893 | 5.46450 | 34901 ft | 386 kts | 205° |
| 2026-05-05 17:15 | 44.03893 | 5.43734 | 34915 ft | 385 kts | 205° |
| 2026-05-05 17:16 | 43.98902 | 5.41029 | 34921 ft | 384 kts | 205° |
| 2026-05-05 17:16 | 43.93943 | 5.38340 | 34924 ft | 384 kts | 205° |
| 2026-05-05 17:17 | 43.88959 | 5.35640 | 34908 ft | 384 kts | 205° |
| 2026-05-05 17:17 | 43.83997 | 5.32970 | 34951 ft | 383 kts | 205° |
| 2026-05-05 17:18 | 43.79011 | 5.30284 | 34942 ft | 384 kts | 205° |
| 2026-05-05 17:18 | 43.74045 | 5.27611 | 34937 ft | 384 kts | 205° |
| 2026-05-05 17:19 | 43.69057 | 5.24926 | 34922 ft | 384 kts | 205° |
| 2026-05-05 17:19 | 43.64071 | 5.22243 | 34929 ft | 383 kts | 205° |
| 2026-05-05 17:20 | 43.59118 | 5.19589 | 34930 ft | 383 kts | 205° |
| 2026-05-05 17:20 | 43.54146 | 5.16935 | 34930 ft | 382 kts | 205° |
| 2026-05-05 17:21 | 43.49206 | 5.14305 | 34920 ft | 382 kts | 205° |
| 2026-05-05 17:22 | 43.41773 | 5.10360 | 34923 ft | 381 kts | 205° |
| 2026-05-05 17:22 | 43.37068 | 5.07232 | 34919 ft | 375 kts | 217° |
| 2026-05-05 17:23 | 43.32761 | 5.03140 | 34918 ft | 375 kts | 217° |
| 2026-05-05 17:23 | 43.28477 | 4.99105 | 34903 ft | 374 kts | 217° |
| 2026-05-05 17:24 | 43.24175 | 4.95068 | 34943 ft | 373 kts | 216° |
| 2026-05-05 17:24 | 43.19898 | 4.91061 | 34923 ft | 374 kts | 216° |
| 2026-05-05 17:25 | 43.15594 | 4.87028 | 34912 ft | 374 kts | 216° |
| 2026-05-05 17:25 | 43.11296 | 4.82998 | 34887 ft | 374 kts | 216° |
| 2026-05-05 17:25 | 43.09164 | 4.81002 | 34535 ft | 375 kts | 216° |
| 2026-05-05 17:26 | 43.07014 | 4.78996 | 34075 ft | 371 kts | 216° |
| 2026-05-05 17:26 | 43.04854 | 4.77127 | 33879 ft | 362 kts | 211° |
| 2026-05-05 17:26 | 43.02662 | 4.75498 | 34119 ft | 356 kts | 212° |
| 2026-05-05 17:26 | 43.00498 | 4.73859 | 34348 ft | 356 kts | 212° |
| 2026-05-05 17:27 | 42.98329 | 4.72202 | 34520 ft | 357 kts | 212° |
| 2026-05-05 17:27 | 42.96184 | 4.70560 | 34692 ft | 358 kts | 212° |
| 2026-05-05 17:27 | 42.93998 | 4.68890 | 34849 ft | 360 kts | 212° |
| 2026-05-05 17:28 | 42.89560 | 4.65510 | 34908 ft | 369 kts | 212° |
| 2026-05-05 17:28 | 42.85031 | 4.62092 | 34906 ft | 373 kts | 212° |
| 2026-05-05 17:29 | 42.80515 | 4.58689 | 34907 ft | 373 kts | 212° |
| 2026-05-05 17:29 | 42.75956 | 4.55260 | 34903 ft | 375 kts | 212° |
| 2026-05-05 17:30 | 42.71367 | 4.51821 | 34905 ft | 376 kts | 212° |
| 2026-05-05 17:30 | 42.66803 | 4.48401 | 34903 ft | 376 kts | 212° |
| 2026-05-05 17:31 | 42.62224 | 4.44965 | 34908 ft | 376 kts | 212° |
| 2026-05-05 17:31 | 42.57635 | 4.41529 | 34904 ft | 376 kts | 212° |
| 2026-05-05 17:32 | 42.53069 | 4.38129 | 34902 ft | 376 kts | 212° |
| 2026-05-05 17:32 | 42.48488 | 4.34716 | 34891 ft | 375 kts | 212° |
| 2026-05-05 17:33 | 42.43911 | 4.31310 | 34893 ft | 374 kts | 212° |
| 2026-05-05 17:33 | 42.39341 | 4.27909 | 34896 ft | 374 kts | 212° |
| 2026-05-05 17:34 | 42.34808 | 4.24541 | 34897 ft | 374 kts | 212° |
| 2026-05-05 17:34 | 42.30238 | 4.21152 | 34871 ft | 373 kts | 212° |
| 2026-05-05 17:35 | 42.25671 | 4.17777 | 34904 ft | 374 kts | 212° |
| 2026-05-05 17:35 | 42.21130 | 4.14434 | 34896 ft | 374 kts | 212° |
| 2026-05-05 17:36 | 42.16556 | 4.11068 | 34886 ft | 375 kts | 212° |
| 2026-05-05 17:36 | 42.11978 | 4.07695 | 34864 ft | 375 kts | 212° |
| 2026-05-05 17:37 | 42.07387 | 4.04329 | 34868 ft | 375 kts | 212° |
| 2026-05-05 17:37 | 42.03573 | 4.01535 | 34874 ft | 375 kts | 212° |
| 2026-05-05 17:38 | 41.98248 | 3.97627 | 34879 ft | 374 kts | 212° |
| 2026-05-05 17:38 | 41.94433 | 3.94846 | 34882 ft | 375 kts | 212° |
| 2026-05-05 17:39 | 41.89423 | 3.92654 | 34860 ft | 385 kts | 196° |
| 2026-05-05 17:39 | 41.84121 | 3.91447 | 34875 ft | 386 kts | 196° |
| 2026-05-05 17:40 | 41.78853 | 3.90243 | 34879 ft | 386 kts | 196° |
| 2026-05-05 17:40 | 41.73550 | 3.89019 | 34884 ft | 386 kts | 197° |
| 2026-05-05 17:41 | 41.68280 | 3.87805 | 34869 ft | 386 kts | 197° |
| 2026-05-05 17:41 | 41.62982 | 3.86589 | 34876 ft | 386 kts | 197° |
| 2026-05-05 17:42 | 41.57679 | 3.85371 | 34884 ft | 386 kts | 197° |
| 2026-05-05 17:42 | 41.52421 | 3.84160 | 34888 ft | 386 kts | 197° |
| 2026-05-05 17:43 | 41.47121 | 3.82943 | 34855 ft | 386 kts | 197° |
| 2026-05-05 17:43 | 41.41820 | 3.81735 | 34864 ft | 386 kts | 197° |
| 2026-05-05 17:44 | 41.36509 | 3.80523 | 34893 ft | 386 kts | 197° |
| 2026-05-05 17:44 | 41.31238 | 3.79312 | 34894 ft | 387 kts | 197° |
| 2026-05-05 17:45 | 41.25907 | 3.78099 | 34872 ft | 388 kts | 197° |
| 2026-05-05 17:45 | 41.20611 | 3.76902 | 34876 ft | 388 kts | 197° |
| 2026-05-05 17:46 | 41.15307 | 3.75602 | 34876 ft | 384 kts | 202° |
| 2026-05-05 17:46 | 41.10346 | 3.73147 | 34880 ft | 380 kts | 206° |
| 2026-05-05 17:47 | 41.05444 | 3.70614 | 34845 ft | 380 kts | 206° |
| 2026-05-05 17:47 | 41.00509 | 3.68072 | 34856 ft | 380 kts | 206° |
| 2026-05-05 17:48 | 40.95575 | 3.65537 | 34855 ft | 379 kts | 206° |
| 2026-05-05 17:48 | 40.93112 | 3.64278 | 34352 ft | 378 kts | 206° |
| 2026-05-05 17:48 | 40.90688 | 3.63037 | 33773 ft | 377 kts | 206° |
| 2026-05-05 17:48 | 40.88234 | 3.61778 | 33096 ft | 377 kts | 206° |
| 2026-05-05 17:49 | 40.85789 | 3.60522 | 32368 ft | 378 kts | 206° |
| 2026-05-05 17:49 | 40.83318 | 3.59254 | 31526 ft | 381 kts | 206° |
| 2026-05-05 17:49 | 40.80836 | 3.57979 | 30720 ft | 384 kts | 207° |
| 2026-05-05 17:49 | 40.78365 | 3.56712 | 29938 ft | 387 kts | 207° |
| 2026-05-05 17:50 | 40.75838 | 3.55420 | 28994 ft | 390 kts | 207° |
| 2026-05-05 17:50 | 40.73286 | 3.54121 | 28013 ft | 394 kts | 207° |
| 2026-05-05 17:50 | 40.70713 | 3.52809 | 27200 ft | 395 kts | 207° |
| 2026-05-05 17:50 | 40.68153 | 3.51511 | 26538 ft | 392 kts | 206° |
| 2026-05-05 17:51 | 40.65644 | 3.50239 | 25886 ft | 390 kts | 207° |
| 2026-05-05 17:51 | 40.63121 | 3.48959 | 25249 ft | 387 kts | 207° |
| 2026-05-05 17:51 | 40.60606 | 3.47686 | 24614 ft | 385 kts | 207° |
| 2026-05-05 17:51 | 40.58113 | 3.46426 | 24006 ft | 382 kts | 207° |
| 2026-05-05 17:52 | 40.55633 | 3.45169 | 23384 ft | 380 kts | 207° |
| 2026-05-05 17:52 | 40.53194 | 3.43928 | 22678 ft | 378 kts | 207° |
| 2026-05-05 17:52 | 40.50730 | 3.42678 | 21995 ft | 376 kts | 206° |
| 2026-05-05 17:52 | 40.48294 | 3.41442 | 21333 ft | 373 kts | 206° |
| 2026-05-05 17:53 | 40.45858 | 3.40257 | 20678 ft | 373 kts | 202° |
| 2026-05-05 17:53 | 40.43309 | 3.39536 | 20050 ft | 377 kts | 193° |
| 2026-05-05 17:53 | 40.40701 | 3.39406 | 19390 ft | 383 kts | 184° |
| 2026-05-05 17:53 | 40.38032 | 3.39566 | 18772 ft | 381 kts | 183° |
| 2026-05-05 17:54 | 40.35385 | 3.39728 | 18204 ft | 379 kts | 183° |
| 2026-05-05 17:54 | 40.32757 | 3.39886 | 17575 ft | 376 kts | 183° |
| 2026-05-05 17:54 | 40.30183 | 3.40037 | 16974 ft | 372 kts | 183° |
| 2026-05-05 17:54 | 40.27593 | 3.40187 | 16409 ft | 369 kts | 182° |
| 2026-05-05 17:55 | 40.25028 | 3.40337 | 15857 ft | 366 kts | 182° |
| 2026-05-05 17:55 | 40.22498 | 3.40484 | 15323 ft | 362 kts | 182° |
| 2026-05-05 17:55 | 40.20024 | 3.40620 | 14788 ft | 359 kts | 182° |
| 2026-05-05 17:55 | 40.17538 | 3.40759 | 14457 ft | 351 kts | 182° |
| 2026-05-05 17:56 | 40.15136 | 3.40898 | 14324 ft | 338 kts | 182° |
| 2026-05-05 17:56 | 40.12829 | 3.41033 | 14206 ft | 325 kts | 182° |
| 2026-05-05 17:56 | 40.10598 | 3.40993 | 13598 ft | 322 kts | 194° |
| 2026-05-05 17:56 | 40.08501 | 3.40008 | 12785 ft | 322 kts | 212° |
| 2026-05-05 17:57 | 40.06618 | 3.38461 | 12107 ft | 325 kts | 214° |
| 2026-05-05 17:57 | 40.04699 | 3.36864 | 11529 ft | 325 kts | 214° |
| 2026-05-05 17:57 | 40.02787 | 3.35271 | 10988 ft | 325 kts | 214° |
| 2026-05-05 17:57 | 40.00886 | 3.33687 | 10467 ft | 324 kts | 214° |
| 2026-05-05 17:58 | 39.99036 | 3.32144 | 10269 ft | 313 kts | 214° |
| 2026-05-05 17:58 | 39.97238 | 3.30644 | 10135 ft | 301 kts | 214° |
| 2026-05-05 17:58 | 39.95506 | 3.29201 | 10021 ft | 289 kts | 214° |
| 2026-05-05 17:58 | 39.93838 | 3.27810 | 9885 ft | 277 kts | 214° |
| 2026-05-05 17:59 | 39.92238 | 3.26476 | 9689 ft | 270 kts | 214° |
| 2026-05-05 17:59 | 39.90683 | 3.25182 | 9329 ft | 267 kts | 214° |
| 2026-05-05 17:59 | 39.89120 | 3.23883 | 8950 ft | 266 kts | 214° |
| 2026-05-05 17:59 | 39.87560 | 3.22590 | 8562 ft | 264 kts | 214° |
| 2026-05-05 18:00 | 39.86012 | 3.21307 | 8164 ft | 263 kts | 214° |
| 2026-05-05 18:00 | 39.84463 | 3.20023 | 7781 ft | 262 kts | 214° |
| 2026-05-05 18:00 | 39.82932 | 3.18755 | 7413 ft | 261 kts | 214° |
| 2026-05-05 18:00 | 39.81401 | 3.17488 | 7027 ft | 260 kts | 214° |
| 2026-05-05 18:01 | 39.79901 | 3.16246 | 6665 ft | 258 kts | 214° |
| 2026-05-05 18:01 | 39.78389 | 3.14992 | 6287 ft | 258 kts | 214° |
| 2026-05-05 18:01 | 39.76871 | 3.13743 | 5909 ft | 256 kts | 214° |
| 2026-05-05 18:01 | 39.75398 | 3.12541 | 5760 ft | 245 kts | 215° |
| 2026-05-05 18:02 | 39.73980 | 3.11372 | 5585 ft | 235 kts | 215° |
| 2026-05-05 18:02 | 39.72639 | 3.10260 | 5449 ft | 222 kts | 216° |
| 2026-05-05 18:02 | 39.71393 | 3.09174 | 5299 ft | 208 kts | 224° |
| 2026-05-05 18:02 | 39.70471 | 3.07807 | 5192 ft | 202 kts | 237° |
| 2026-05-05 18:03 | 39.69703 | 3.06285 | 5094 ft | 200 kts | 240° |
| 2026-05-05 18:03 | 39.68971 | 3.04739 | 4950 ft | 200 kts | 241° |
| 2026-05-05 18:03 | 39.68251 | 3.03203 | 4724 ft | 198 kts | 241° |
| 2026-05-05 18:03 | 39.67542 | 3.01688 | 4468 ft | 199 kts | 241° |
| 2026-05-05 18:04 | 39.66829 | 3.00168 | 4199 ft | 194 kts | 241° |
| 2026-05-05 18:04 | 39.66147 | 2.98714 | 3947 ft | 183 kts | 241° |
| 2026-05-05 18:04 | 39.65494 | 2.97321 | 3710 ft | 179 kts | 242° |
| 2026-05-05 18:04 | 39.64847 | 2.95942 | 3473 ft | 179 kts | 242° |
| 2026-05-05 18:05 | 39.64204 | 2.94570 | 3245 ft | 178 kts | 242° |
| 2026-05-05 18:05 | 39.63571 | 2.93224 | 3022 ft | 168 kts | 241° |
| 2026-05-05 18:05 | 39.62985 | 2.91977 | 2796 ft | 161 kts | 241° |
| 2026-05-05 18:05 | 39.62418 | 2.90770 | 2586 ft | 157 kts | 240° |
| 2026-05-05 18:06 | 39.61848 | 2.89556 | 2395 ft | 157 kts | 240° |
| 2026-05-05 18:06 | 39.61470 | 2.88753 | 2250 ft | 157 kts | 239° |
| 2026-05-05 18:06 | 39.60713 | 2.87144 | 1972 ft | 155 kts | 239° |
| 2026-05-05 18:06 | 39.60163 | 2.85975 | 1773 ft | 152 kts | 239° |
| 2026-05-05 18:07 | 39.59615 | 2.84812 | 1570 ft | 149 kts | 239° |
| 2026-05-05 18:07 | 39.59075 | 2.83664 | 1349 ft | 148 kts | 239° |
| 2026-05-05 18:07 | 39.58534 | 2.82512 | 1154 ft | 149 kts | 238° |
| 2026-05-05 18:07 | 39.57995 | 2.81368 | 946 ft | 150 kts | 237° |
| 2026-05-05 18:08 | 39.57454 | 2.80218 | 750 ft | 147 kts | 237° |
| 2026-05-05 18:08 | 39.56927 | 2.79093 | 543 ft | 149 kts | 237° |
| 2026-05-05 18:08 | 39.56396 | 2.77972 | 387 ft | 147 kts | 238° |
| 2026-05-05 18:08 | 39.55864 | 2.76844 | 198 ft | 146 kts | 237° |
| 2026-05-05 18:09 | 39.55340 | 2.75740 | 42 ft | 140 kts | 238° |